Aeroporto :
LOGIN :

Iscrizione | Disclaimer

   EN    FR    IT 

 










Sommario :    VFR   VFR Marginale   IFR   IFR Intensivo   IFR Molto Intensivo
Visibilità : 
Base nubi : 
>= 8 km
>= 3000ft
5 / 8 km
1000 / 3000 ft
1500m / 5 km
500 / 1000 ft
800 / 1500m
200 / 500 ft
< 800m
< 200 ft
Simboli :   Temporali  Nebbia  Neve Forte  Precipitazioni Forti  Vento > 20 kt
SIGMETs :   Varie  Temporali  Ghiacco  Turbolenza  Onda orograficha  Ceneri Vulcaniche






- Altitudine del aeroporto : 330 ft
- Codice IATA : LVA


LFOV - Laval-Entrammes

ULTIMO METAR :
  • 232000Z AUTO 22010KT 190V250 9999 OVC005 11/11 Q1028

METARs OBSOLETI :
  • 231930Z AUTO 22009KT 190V250 9999 OVC005 11/11 Q1028
  • 231900Z AUTO 22007KT 190V250 9999 OVC005 11/11 Q1028
  • 231830Z AUTO 22008KT 180V250 5000 -DZ BR BKN005 OVC010 11/11 Q1028
  • 231800Z AUTO 22009KT 190V250 5000 -DZ BR OVC005 12/11 Q1027
  • 231730Z AUTO 22008KT 3600 -DZ BR BKN005 OVC009 12/11 Q1027

TAF N/A



MetMap, La meteo Aeronautica in un colpo d'occhio ! - Copyright ORBIFLY Dicembre 2007 - Disclaimer

ORBIFLY MET'MAP TEAM :

Programmazione e sviluppo : Alexandra Zaïnal
Concezione : Baudouin d'Aumeries
Aiuto per la programmazione : Marc-Olivier Méhu
Supporto tecnico e logistico : Manuel Goepfert
Aiuto per la traduzione : Arnaldo La Scala

Contatto : metmap@orbifly.com




FONTI E CREDITI :

   NOAA